sensor_id;sensor_type;location;lat;lon;timestamp;P1;durP1;ratioP1;P2;durP2;ratioP2
52542;SDS011;38449;52.696;6.186;2024-01-30T00:00:23;16.27;;;12.52;;
52542;SDS011;38449;52.696;6.186;2024-01-30T00:02:50;17.15;;;12.10;;
52542;SDS011;38449;52.696;6.186;2024-01-30T00:05:18;15.80;;;13.02;;
52542;SDS011;38449;52.696;6.186;2024-01-30T00:07:45;16.40;;;13.75;;
52542;SDS011;38449;52.696;6.186;2024-01-30T00:10:11;18.63;;;12.90;;
52542;SDS011;38449;52.696;6.186;2024-01-30T00:12:37;16.52;;;13.25;;
52542;SDS011;38449;52.696;6.186;2024-01-30T00:15:04;20.90;;;13.90;;
52542;SDS011;38449;52.696;6.186;2024-01-30T00:17:30;16.77;;;13.35;;
52542;SDS011;38449;52.696;6.186;2024-01-30T00:19:57;20.13;;;13.60;;
52542;SDS011;38449;52.696;6.186;2024-01-30T00:22:24;17.08;;;12.55;;
52542;SDS011;38449;52.696;6.186;2024-01-30T00:24:50;18.05;;;13.73;;
52542;SDS011;38449;52.696;6.186;2024-01-30T00:27:16;17.13;;;13.70;;
52542;SDS011;38449;52.696;6.186;2024-01-30T00:29:43;20.13;;;12.90;;
52542;SDS011;38449;52.696;6.186;2024-01-30T00:32:10;16.90;;;12.52;;
52542;SDS011;38449;52.696;6.186;2024-01-30T00:34:36;18.45;;;12.27;;
52542;SDS011;38449;52.696;6.186;2024-01-30T00:37:02;18.35;;;13.68;;
52542;SDS011;38449;52.696;6.186;2024-01-30T00:39:30;18.02;;;13.52;;
52542;SDS011;38449;52.696;6.186;2024-01-30T00:41:56;18.33;;;12.90;;
52542;SDS011;38449;52.696;6.186;2024-01-30T00:44:23;16.42;;;12.32;;
52542;SDS011;38449;52.696;6.186;2024-01-30T00:46:50;19.85;;;12.80;;
52542;SDS011;38449;52.696;6.186;2024-01-30T00:49:18;17.55;;;13.38;;
52542;SDS011;38449;52.696;6.186;2024-01-30T00:51:44;16.15;;;12.23;;
52542;SDS011;38449;52.696;6.186;2024-01-30T00:54:15;15.43;;;12.55;;
52542;SDS011;38449;52.696;6.186;2024-01-30T00:56:41;15.43;;;11.73;;
52542;SDS011;38449;52.696;6.186;2024-01-30T00:59:08;16.42;;;11.95;;
52542;SDS011;38449;52.696;6.186;2024-01-30T01:01:34;15.35;;;12.75;;
52542;SDS011;38449;52.696;6.186;2024-01-30T01:04:00;18.05;;;12.48;;
52542;SDS011;38449;52.696;6.186;2024-01-30T01:06:26;16.67;;;12.18;;
52542;SDS011;38449;52.696;6.186;2024-01-30T01:08:53;16.27;;;12.07;;
52542;SDS011;38449;52.696;6.186;2024-01-30T01:11:19;17.15;;;12.77;;
52542;SDS011;38449;52.696;6.186;2024-01-30T01:13:45;15.98;;;12.98;;
52542;SDS011;38449;52.696;6.186;2024-01-30T01:16:11;16.30;;;12.27;;
52542;SDS011;38449;52.696;6.186;2024-01-30T01:18:37;17.25;;;13.18;;
52542;SDS011;38449;52.696;6.186;2024-01-30T01:21:05;20.60;;;12.40;;
52542;SDS011;38449;52.696;6.186;2024-01-30T01:23:31;16.65;;;12.40;;
52542;SDS011;38449;52.696;6.186;2024-01-30T01:25:58;17.48;;;12.70;;
52542;SDS011;38449;52.696;6.186;2024-01-30T01:28:25;17.42;;;13.23;;
52542;SDS011;38449;52.696;6.186;2024-01-30T01:30:51;19.55;;;13.27;;
52542;SDS011;38449;52.696;6.186;2024-01-30T01:33:19;17.95;;;13.23;;
52542;SDS011;38449;52.696;6.186;2024-01-30T01:35:45;16.02;;;12.48;;
52542;SDS011;38449;52.696;6.186;2024-01-30T01:38:12;18.58;;;12.80;;
52542;SDS011;38449;52.696;6.186;2024-01-30T01:40:39;15.85;;;12.38;;
52542;SDS011;38449;52.696;6.186;2024-01-30T01:43:05;19.15;;;13.48;;
52542;SDS011;38449;52.696;6.186;2024-01-30T01:45:31;19.60;;;13.48;;
52542;SDS011;38449;52.696;6.186;2024-01-30T01:47:58;15.60;;;12.05;;
52542;SDS011;38449;52.696;6.186;2024-01-30T01:50:24;17.58;;;12.13;;
52542;SDS011;38449;52.696;6.186;2024-01-30T01:52:52;19.55;;;12.52;;
52542;SDS011;38449;52.696;6.186;2024-01-30T01:55:20;16.77;;;12.30;;
52542;SDS011;38449;52.696;6.186;2024-01-30T01:57:51;15.60;;;12.25;;
52542;SDS011;38449;52.696;6.186;2024-01-30T02:00:19;16.48;;;12.35;;
52542;SDS011;38449;52.696;6.186;2024-01-30T02:02:46;17.50;;;12.15;;
52542;SDS011;38449;52.696;6.186;2024-01-30T02:05:12;18.17;;;12.50;;
52542;SDS011;38449;52.696;6.186;2024-01-30T02:07:39;14.77;;;12.05;;
52542;SDS011;38449;52.696;6.186;2024-01-30T02:10:07;15.07;;;11.85;;
52542;SDS011;38449;52.696;6.186;2024-01-30T02:12:35;16.88;;;12.43;;
52542;SDS011;38449;52.696;6.186;2024-01-30T02:15:01;15.90;;;12.43;;
52542;SDS011;38449;52.696;6.186;2024-01-30T02:17:28;16.65;;;12.45;;
52542;SDS011;38449;52.696;6.186;2024-01-30T02:19:54;16.30;;;12.30;;
52542;SDS011;38449;52.696;6.186;2024-01-30T02:22:20;17.80;;;13.20;;
52542;SDS011;38449;52.696;6.186;2024-01-30T02:24:48;16.63;;;12.52;;
52542;SDS011;38449;52.696;6.186;2024-01-30T02:27:14;16.52;;;13.27;;
52542;SDS011;38449;52.696;6.186;2024-01-30T02:29:41;16.95;;;11.85;;
52542;SDS011;38449;52.696;6.186;2024-01-30T02:32:07;16.42;;;12.13;;
52542;SDS011;38449;52.696;6.186;2024-01-30T02:34:33;15.60;;;11.95;;
52542;SDS011;38449;52.696;6.186;2024-01-30T02:37:02;15.88;;;11.38;;
52542;SDS011;38449;52.696;6.186;2024-01-30T02:39:29;15.85;;;11.27;;
52542;SDS011;38449;52.696;6.186;2024-01-30T02:41:55;15.50;;;12.00;;
52542;SDS011;38449;52.696;6.186;2024-01-30T02:44:23;15.45;;;12.05;;
52542;SDS011;38449;52.696;6.186;2024-01-30T02:46:49;16.38;;;12.10;;
52542;SDS011;38449;52.696;6.186;2024-01-30T02:49:16;15.30;;;11.88;;
52542;SDS011;38449;52.696;6.186;2024-01-30T02:51:42;18.67;;;12.30;;
52542;SDS011;38449;52.696;6.186;2024-01-30T02:54:08;15.98;;;12.43;;
52542;SDS011;38449;52.696;6.186;2024-01-30T02:56:34;15.57;;;11.18;;
52542;SDS011;38449;52.696;6.186;2024-01-30T02:59:01;14.55;;;11.85;;
52542;SDS011;38449;52.696;6.186;2024-01-30T03:01:28;15.82;;;12.15;;
52542;SDS011;38449;52.696;6.186;2024-01-30T03:03:55;15.93;;;10.75;;
52542;SDS011;38449;52.696;6.186;2024-01-30T03:06:21;17.35;;;11.63;;
52542;SDS011;38449;52.696;6.186;2024-01-30T03:08:48;15.65;;;11.30;;
52542;SDS011;38449;52.696;6.186;2024-01-30T03:11:15;15.90;;;11.85;;
52542;SDS011;38449;52.696;6.186;2024-01-30T03:13:41;16.58;;;12.05;;
52542;SDS011;38449;52.696;6.186;2024-01-30T03:16:08;16.35;;;11.38;;
52542;SDS011;38449;52.696;6.186;2024-01-30T03:18:34;19.58;;;12.38;;
52542;SDS011;38449;52.696;6.186;2024-01-30T03:21:00;14.98;;;11.32;;
52542;SDS011;38449;52.696;6.186;2024-01-30T03:23:27;16.55;;;11.57;;
52542;SDS011;38449;52.696;6.186;2024-01-30T03:25:53;15.38;;;11.52;;
52542;SDS011;38449;52.696;6.186;2024-01-30T03:28:20;16.10;;;11.60;;
52542;SDS011;38449;52.696;6.186;2024-01-30T03:30:46;16.15;;;11.70;;
52542;SDS011;38449;52.696;6.186;2024-01-30T03:33:12;17.88;;;11.80;;
52542;SDS011;38449;52.696;6.186;2024-01-30T03:35:38;17.20;;;11.23;;
52542;SDS011;38449;52.696;6.186;2024-01-30T03:38:06;15.57;;;11.90;;
52542;SDS011;38449;52.696;6.186;2024-01-30T03:40:32;16.13;;;11.73;;
52542;SDS011;38449;52.696;6.186;2024-01-30T03:42:58;13.18;;;10.57;;
52542;SDS011;38449;52.696;6.186;2024-01-30T03:45:26;12.95;;;10.75;;
52542;SDS011;38449;52.696;6.186;2024-01-30T03:47:52;16.38;;;10.90;;
52542;SDS011;38449;52.696;6.186;2024-01-30T03:50:19;16.85;;;11.65;;
52542;SDS011;38449;52.696;6.186;2024-01-30T03:52:46;15.07;;;10.93;;
52542;SDS011;38449;52.696;6.186;2024-01-30T03:55:12;14.55;;;11.13;;
52542;SDS011;38449;52.696;6.186;2024-01-30T03:57:38;14.25;;;10.45;;
52542;SDS011;38449;52.696;6.186;2024-01-30T04:00:05;15.38;;;11.27;;
52542;SDS011;38449;52.696;6.186;2024-01-30T04:02:31;15.25;;;10.80;;
52542;SDS011;38449;52.696;6.186;2024-01-30T04:04:59;15.13;;;10.70;;
52542;SDS011;38449;52.696;6.186;2024-01-30T04:07:26;15.15;;;11.65;;
52542;SDS011;38449;52.696;6.186;2024-01-30T04:09:53;15.82;;;10.60;;
52542;SDS011;38449;52.696;6.186;2024-01-30T04:12:19;11.98;;;9.65;;
52542;SDS011;38449;52.696;6.186;2024-01-30T04:14:45;14.38;;;11.32;;
52542;SDS011;38449;52.696;6.186;2024-01-30T04:17:12;18.02;;;11.05;;
52542;SDS011;38449;52.696;6.186;2024-01-30T04:19:38;13.52;;;11.20;;
52542;SDS011;38449;52.696;6.186;2024-01-30T04:22:04;18.63;;;11.27;;
52542;SDS011;38449;52.696;6.186;2024-01-30T04:24:33;13.48;;;9.73;;
52542;SDS011;38449;52.696;6.186;2024-01-30T04:26:59;13.30;;;9.65;;
52542;SDS011;38449;52.696;6.186;2024-01-30T04:29:26;14.52;;;10.82;;
52542;SDS011;38449;52.696;6.186;2024-01-30T04:31:53;13.70;;;10.40;;
52542;SDS011;38449;52.696;6.186;2024-01-30T04:34:19;14.40;;;10.02;;
52542;SDS011;38449;52.696;6.186;2024-01-30T04:36:45;14.85;;;10.20;;
52542;SDS011;38449;52.696;6.186;2024-01-30T04:39:13;17.10;;;11.98;;
52542;SDS011;38449;52.696;6.186;2024-01-30T04:41:39;15.10;;;11.07;;
52542;SDS011;38449;52.696;6.186;2024-01-30T04:44:05;15.75;;;11.00;;
52542;SDS011;38449;52.696;6.186;2024-01-30T04:46:32;14.10;;;10.80;;
52542;SDS011;38449;52.696;6.186;2024-01-30T04:49:00;14.82;;;10.70;;
52542;SDS011;38449;52.696;6.186;2024-01-30T04:51:26;12.68;;;10.63;;
52542;SDS011;38449;52.696;6.186;2024-01-30T04:53:52;14.75;;;11.10;;
52542;SDS011;38449;52.696;6.186;2024-01-30T04:56:19;13.88;;;10.48;;
52542;SDS011;38449;52.696;6.186;2024-01-30T04:58:45;14.75;;;10.55;;
52542;SDS011;38449;52.696;6.186;2024-01-30T05:01:14;15.82;;;10.35;;
52542;SDS011;38449;52.696;6.186;2024-01-30T05:03:42;13.00;;;10.38;;
52542;SDS011;38449;52.696;6.186;2024-01-30T05:06:09;13.45;;;10.05;;
52542;SDS011;38449;52.696;6.186;2024-01-30T05:08:35;13.85;;;11.05;;
52542;SDS011;38449;52.696;6.186;2024-01-30T05:11:05;15.02;;;10.45;;
52542;SDS011;38449;52.696;6.186;2024-01-30T05:13:31;14.68;;;11.50;;
52542;SDS011;38449;52.696;6.186;2024-01-30T05:16:01;14.00;;;11.00;;
52542;SDS011;38449;52.696;6.186;2024-01-30T05:18:29;15.98;;;10.32;;
52542;SDS011;38449;52.696;6.186;2024-01-30T05:20:55;13.00;;;9.60;;
52542;SDS011;38449;52.696;6.186;2024-01-30T05:23:21;13.25;;;10.27;;
52542;SDS011;38449;52.696;6.186;2024-01-30T05:25:47;14.95;;;10.93;;
52542;SDS011;38449;52.696;6.186;2024-01-30T05:28:14;17.90;;;10.65;;
52542;SDS011;38449;52.696;6.186;2024-01-30T05:30:41;12.85;;;10.52;;
52542;SDS011;38449;52.696;6.186;2024-01-30T05:33:07;13.10;;;10.23;;
52542;SDS011;38449;52.696;6.186;2024-01-30T05:35:36;14.70;;;10.68;;
52542;SDS011;38449;52.696;6.186;2024-01-30T05:38:04;14.25;;;10.27;;
52542;SDS011;38449;52.696;6.186;2024-01-30T05:40:31;15.35;;;10.35;;
52542;SDS011;38449;52.696;6.186;2024-01-30T05:42:57;13.93;;;10.18;;
52542;SDS011;38449;52.696;6.186;2024-01-30T05:45:28;15.30;;;10.32;;
52542;SDS011;38449;52.696;6.186;2024-01-30T05:47:54;14.43;;;9.98;;
52542;SDS011;38449;52.696;6.186;2024-01-30T05:50:21;12.52;;;9.75;;
52542;SDS011;38449;52.696;6.186;2024-01-30T05:52:49;13.88;;;10.20;;
52542;SDS011;38449;52.696;6.186;2024-01-30T05:55:16;14.50;;;10.00;;
52542;SDS011;38449;52.696;6.186;2024-01-30T05:57:42;13.13;;;9.88;;
52542;SDS011;38449;52.696;6.186;2024-01-30T06:00:08;14.90;;;10.55;;
52542;SDS011;38449;52.696;6.186;2024-01-30T06:02:35;14.68;;;9.65;;
52542;SDS011;38449;52.696;6.186;2024-01-30T06:05:04;13.52;;;9.98;;
52542;SDS011;38449;52.696;6.186;2024-01-30T06:07:31;13.10;;;10.63;;
52542;SDS011;38449;52.696;6.186;2024-01-30T06:09:58;11.55;;;9.40;;
52542;SDS011;38449;52.696;6.186;2024-01-30T06:12:26;15.43;;;10.40;;
52542;SDS011;38449;52.696;6.186;2024-01-30T06:14:53;12.25;;;9.88;;
52542;SDS011;38449;52.696;6.186;2024-01-30T06:17:22;14.65;;;10.57;;
52542;SDS011;38449;52.696;6.186;2024-01-30T06:19:49;12.98;;;9.82;;
52542;SDS011;38449;52.696;6.186;2024-01-30T06:22:16;13.93;;;9.82;;
52542;SDS011;38449;52.696;6.186;2024-01-30T06:24:43;13.73;;;9.77;;
52542;SDS011;38449;52.696;6.186;2024-01-30T06:27:16;12.68;;;9.85;;
52542;SDS011;38449;52.696;6.186;2024-01-30T06:29:43;13.50;;;10.57;;
52542;SDS011;38449;52.696;6.186;2024-01-30T06:32:10;12.48;;;9.50;;
52542;SDS011;38449;52.696;6.186;2024-01-30T06:34:36;16.17;;;9.88;;
52542;SDS011;38449;52.696;6.186;2024-01-30T06:37:05;13.40;;;10.07;;
52542;SDS011;38449;52.696;6.186;2024-01-30T06:39:31;13.00;;;9.70;;
52542;SDS011;38449;52.696;6.186;2024-01-30T06:41:58;13.65;;;10.63;;
52542;SDS011;38449;52.696;6.186;2024-01-30T06:44:24;13.35;;;9.68;;
52542;SDS011;38449;52.696;6.186;2024-01-30T06:46:51;13.55;;;9.82;;
52542;SDS011;38449;52.696;6.186;2024-01-30T06:49:17;12.77;;;10.30;;
52542;SDS011;38449;52.696;6.186;2024-01-30T06:51:46;14.70;;;9.35;;
52542;SDS011;38449;52.696;6.186;2024-01-30T06:54:12;13.02;;;9.57;;
52542;SDS011;38449;52.696;6.186;2024-01-30T06:56:38;13.10;;;10.15;;
52542;SDS011;38449;52.696;6.186;2024-01-30T06:59:04;11.52;;;9.45;;
52542;SDS011;38449;52.696;6.186;2024-01-30T07:01:31;13.75;;;9.23;;
52542;SDS011;38449;52.696;6.186;2024-01-30T07:03:58;15.98;;;9.98;;
52542;SDS011;38449;52.696;6.186;2024-01-30T07:06:24;18.17;;;10.55;;
52542;SDS011;38449;52.696;6.186;2024-01-30T07:08:50;11.88;;;9.93;;
52542;SDS011;38449;52.696;6.186;2024-01-30T07:11:20;14.35;;;10.10;;
52542;SDS011;38449;52.696;6.186;2024-01-30T07:13:50;14.10;;;10.07;;
52542;SDS011;38449;52.696;6.186;2024-01-30T07:16:17;13.10;;;10.57;;
52542;SDS011;38449;52.696;6.186;2024-01-30T07:18:43;15.55;;;9.55;;
52542;SDS011;38449;52.696;6.186;2024-01-30T07:21:09;15.55;;;9.95;;
52542;SDS011;38449;52.696;6.186;2024-01-30T07:23:36;14.70;;;10.30;;
52542;SDS011;38449;52.696;6.186;2024-01-30T07:26:05;12.77;;;9.70;;
52542;SDS011;38449;52.696;6.186;2024-01-30T07:28:32;13.07;;;10.10;;
52542;SDS011;38449;52.696;6.186;2024-01-30T07:30:59;13.70;;;9.75;;
52542;SDS011;38449;52.696;6.186;2024-01-30T07:33:25;14.45;;;10.32;;
52542;SDS011;38449;52.696;6.186;2024-01-30T07:35:52;12.82;;;8.98;;
52542;SDS011;38449;52.696;6.186;2024-01-30T07:38:22;14.38;;;9.77;;
52542;SDS011;38449;52.696;6.186;2024-01-30T07:40:49;13.68;;;9.73;;
52542;SDS011;38449;52.696;6.186;2024-01-30T07:43:15;12.95;;;9.82;;
52542;SDS011;38449;52.696;6.186;2024-01-30T07:45:41;17.02;;;10.73;;
52542;SDS011;38449;52.696;6.186;2024-01-30T07:48:08;14.85;;;10.00;;
52542;SDS011;38449;52.696;6.186;2024-01-30T07:50:34;15.27;;;10.40;;
52542;SDS011;38449;52.696;6.186;2024-01-30T07:53:00;12.88;;;9.88;;
52542;SDS011;38449;52.696;6.186;2024-01-30T07:55:29;13.35;;;9.88;;
52542;SDS011;38449;52.696;6.186;2024-01-30T07:57:57;13.55;;;9.55;;
52542;SDS011;38449;52.696;6.186;2024-01-30T08:00:25;12.65;;;9.40;;
52542;SDS011;38449;52.696;6.186;2024-01-30T08:02:52;12.50;;;9.70;;
52542;SDS011;38449;52.696;6.186;2024-01-30T08:05:21;12.80;;;9.20;;
52542;SDS011;38449;52.696;6.186;2024-01-30T08:07:49;14.93;;;10.65;;
52542;SDS011;38449;52.696;6.186;2024-01-30T08:10:16;16.50;;;9.95;;
52542;SDS011;38449;52.696;6.186;2024-01-30T08:12:44;12.48;;;9.35;;
52542;SDS011;38449;52.696;6.186;2024-01-30T08:15:11;13.95;;;9.73;;
52542;SDS011;38449;52.696;6.186;2024-01-30T08:17:40;12.85;;;9.18;;
52542;SDS011;38449;52.696;6.186;2024-01-30T08:20:07;13.00;;;9.18;;
52542;SDS011;38449;52.696;6.186;2024-01-30T08:22:38;15.13;;;10.02;;
52542;SDS011;38449;52.696;6.186;2024-01-30T08:25:06;12.95;;;9.35;;
52542;SDS011;38449;52.696;6.186;2024-01-30T08:27:33;12.60;;;9.90;;
52542;SDS011;38449;52.696;6.186;2024-01-30T08:30:01;12.77;;;9.93;;
52542;SDS011;38449;52.696;6.186;2024-01-30T08:32:28;13.85;;;9.40;;
52542;SDS011;38449;52.696;6.186;2024-01-30T08:34:54;14.07;;;9.85;;
52542;SDS011;38449;52.696;6.186;2024-01-30T08:37:21;13.85;;;9.10;;
52542;SDS011;38449;52.696;6.186;2024-01-30T08:39:47;12.18;;;9.50;;
52542;SDS011;38449;52.696;6.186;2024-01-30T08:42:13;13.90;;;9.55;;
52542;SDS011;38449;52.696;6.186;2024-01-30T08:44:40;12.93;;;9.43;;
52542;SDS011;38449;52.696;6.186;2024-01-30T08:47:06;14.63;;;9.93;;
52542;SDS011;38449;52.696;6.186;2024-01-30T08:49:32;13.40;;;9.13;;
52542;SDS011;38449;52.696;6.186;2024-01-30T08:51:58;13.73;;;9.45;;
52542;SDS011;38449;52.696;6.186;2024-01-30T08:54:25;15.70;;;9.60;;
52542;SDS011;38449;52.696;6.186;2024-01-30T08:56:51;15.48;;;10.00;;
52542;SDS011;38449;52.696;6.186;2024-01-30T08:59:18;14.38;;;10.65;;
52542;SDS011;38449;52.696;6.186;2024-01-30T09:01:45;15.60;;;9.57;;
52542;SDS011;38449;52.696;6.186;2024-01-30T09:04:12;14.50;;;9.82;;
52542;SDS011;38449;52.696;6.186;2024-01-30T09:06:39;13.30;;;8.95;;
52542;SDS011;38449;52.696;6.186;2024-01-30T09:09:05;14.50;;;9.85;;
52542;SDS011;38449;52.696;6.186;2024-01-30T09:11:31;16.45;;;9.93;;
52542;SDS011;38449;52.696;6.186;2024-01-30T09:13:58;12.57;;;9.05;;
52542;SDS011;38449;52.696;6.186;2024-01-30T09:16:24;12.95;;;9.35;;
52542;SDS011;38449;52.696;6.186;2024-01-30T09:18:50;13.75;;;9.90;;
52542;SDS011;38449;52.696;6.186;2024-01-30T09:21:16;13.70;;;9.23;;
52542;SDS011;38449;52.696;6.186;2024-01-30T09:23:43;13.27;;;9.00;;
52542;SDS011;38449;52.696;6.186;2024-01-30T09:26:09;13.25;;;9.30;;
52542;SDS011;38449;52.696;6.186;2024-01-30T09:28:36;13.25;;;9.73;;
52542;SDS011;38449;52.696;6.186;2024-01-30T09:31:02;13.43;;;8.75;;
52542;SDS011;38449;52.696;6.186;2024-01-30T09:33:29;13.88;;;8.82;;
52542;SDS011;38449;52.696;6.186;2024-01-30T09:35:55;12.95;;;9.18;;
52542;SDS011;38449;52.696;6.186;2024-01-30T09:38:21;10.82;;;8.30;;
52542;SDS011;38449;52.696;6.186;2024-01-30T09:40:49;12.00;;;9.02;;
52542;SDS011;38449;52.696;6.186;2024-01-30T09:43:23;12.40;;;9.15;;
52542;SDS011;38449;52.696;6.186;2024-01-30T09:45:50;16.08;;;9.60;;
52542;SDS011;38449;52.696;6.186;2024-01-30T09:48:16;11.75;;;9.32;;
52542;SDS011;38449;52.696;6.186;2024-01-30T09:50:43;12.43;;;9.02;;
52542;SDS011;38449;52.696;6.186;2024-01-30T09:53:10;12.48;;;9.27;;
52542;SDS011;38449;52.696;6.186;2024-01-30T09:55:38;15.25;;;9.40;;
52542;SDS011;38449;52.696;6.186;2024-01-30T09:58:08;12.93;;;9.45;;
52542;SDS011;38449;52.696;6.186;2024-01-30T10:00:35;13.65;;;9.27;;
52542;SDS011;38449;52.696;6.186;2024-01-30T10:03:04;15.77;;;9.55;;
52542;SDS011;38449;52.696;6.186;2024-01-30T10:05:31;13.48;;;8.95;;
52542;SDS011;38449;52.696;6.186;2024-01-30T10:08:00;13.68;;;9.07;;
52542;SDS011;38449;52.696;6.186;2024-01-30T10:10:28;12.88;;;8.88;;
52542;SDS011;38449;52.696;6.186;2024-01-30T10:12:55;14.57;;;9.45;;
52542;SDS011;38449;52.696;6.186;2024-01-30T10:15:21;16.10;;;9.32;;
52542;SDS011;38449;52.696;6.186;2024-01-30T10:17:49;16.35;;;8.68;;
52542;SDS011;38449;52.696;6.186;2024-01-30T10:20:15;16.15;;;9.45;;
52542;SDS011;38449;52.696;6.186;2024-01-30T10:22:43;15.88;;;8.75;;
52542;SDS011;38449;52.696;6.186;2024-01-30T10:25:11;11.55;;;8.48;;
52542;SDS011;38449;52.696;6.186;2024-01-30T10:27:41;15.38;;;9.50;;
52542;SDS011;38449;52.696;6.186;2024-01-30T10:30:07;12.90;;;9.20;;
52542;SDS011;38449;52.696;6.186;2024-01-30T10:32:34;12.27;;;8.73;;
52542;SDS011;38449;52.696;6.186;2024-01-30T10:35:04;16.35;;;9.25;;
52542;SDS011;38449;52.696;6.186;2024-01-30T10:37:30;16.00;;;9.35;;
52542;SDS011;38449;52.696;6.186;2024-01-30T10:39:59;15.68;;;9.50;;
52542;SDS011;38449;52.696;6.186;2024-01-30T10:42:33;14.85;;;9.38;;
52542;SDS011;38449;52.696;6.186;2024-01-30T10:45:10;17.05;;;9.43;;
52542;SDS011;38449;52.696;6.186;2024-01-30T10:47:43;14.48;;;8.90;;
52542;SDS011;38449;52.696;6.186;2024-01-30T10:50:14;16.52;;;8.95;;
52542;SDS011;38449;52.696;6.186;2024-01-30T10:52:41;11.80;;;8.82;;
52542;SDS011;38449;52.696;6.186;2024-01-30T10:55:09;15.80;;;9.77;;
52542;SDS011;38449;52.696;6.186;2024-01-30T10:57:36;13.43;;;9.40;;
52542;SDS011;38449;52.696;6.186;2024-01-30T11:00:06;15.85;;;9.02;;
52542;SDS011;38449;52.696;6.186;2024-01-30T11:02:36;16.83;;;9.73;;
52542;SDS011;38449;52.696;6.186;2024-01-30T11:05:05;15.00;;;9.63;;
52542;SDS011;38449;52.696;6.186;2024-01-30T11:07:32;14.15;;;9.73;;
52542;SDS011;38449;52.696;6.186;2024-01-30T11:12:31;15.25;;;10.27;;
52542;SDS011;38449;52.696;6.186;2024-01-30T11:15:05;18.27;;;10.98;;
52542;SDS011;38449;52.696;6.186;2024-01-30T11:20:22;13.55;;;9.88;;
52542;SDS011;38449;52.696;6.186;2024-01-30T11:22:53;14.32;;;9.02;;
52542;SDS011;38449;52.696;6.186;2024-01-30T11:25:23;15.18;;;10.00;;
52542;SDS011;38449;52.696;6.186;2024-01-30T11:27:53;15.25;;;10.15;;
52542;SDS011;38449;52.696;6.186;2024-01-30T11:30:28;13.77;;;9.98;;
52542;SDS011;38449;52.696;6.186;2024-01-30T11:35:32;13.60;;;10.23;;
52542;SDS011;38449;52.696;6.186;2024-01-30T11:38:00;12.23;;;9.30;;
52542;SDS011;38449;52.696;6.186;2024-01-30T11:40:30;14.60;;;10.15;;
52542;SDS011;38449;52.696;6.186;2024-01-30T11:42:58;9.77;;;8.13;;
52542;SDS011;38449;52.696;6.186;2024-01-30T11:45:26;9.85;;;8.60;;
52542;SDS011;38449;52.696;6.186;2024-01-30T11:47:53;15.55;;;9.05;;
52542;SDS011;38449;52.696;6.186;2024-01-30T11:50:21;15.15;;;9.60;;
52542;SDS011;38449;52.696;6.186;2024-01-30T11:52:48;14.82;;;9.63;;
52542;SDS011;38449;52.696;6.186;2024-01-30T11:55:14;14.63;;;10.25;;
52542;SDS011;38449;52.696;6.186;2024-01-30T11:57:41;16.42;;;10.32;;
52542;SDS011;38449;52.696;6.186;2024-01-30T12:00:14;13.48;;;8.88;;
52542;SDS011;38449;52.696;6.186;2024-01-30T12:02:53;21.85;;;9.77;;
52542;SDS011;38449;52.696;6.186;2024-01-30T12:05:24;14.13;;;7.68;;
52542;SDS011;38449;52.696;6.186;2024-01-30T12:07:54;16.50;;;8.25;;
52542;SDS011;38449;52.696;6.186;2024-01-30T12:10:24;19.27;;;7.55;;
52542;SDS011;38449;52.696;6.186;2024-01-30T12:12:51;19.17;;;7.28;;
52542;SDS011;38449;52.696;6.186;2024-01-30T12:15:18;12.48;;;5.40;;
52542;SDS011;38449;52.696;6.186;2024-01-30T12:17:47;14.38;;;6.13;;
52542;SDS011;38449;52.696;6.186;2024-01-30T12:20:14;16.67;;;6.65;;
52542;SDS011;38449;52.696;6.186;2024-01-30T12:22:43;13.63;;;6.30;;
52542;SDS011;38449;52.696;6.186;2024-01-30T12:25:11;7.93;;;5.13;;
52542;SDS011;38449;52.696;6.186;2024-01-30T12:27:40;13.32;;;5.82;;
52542;SDS011;38449;52.696;6.186;2024-01-30T12:30:10;12.82;;;5.45;;
52542;SDS011;38449;52.696;6.186;2024-01-30T12:32:39;9.27;;;5.20;;
52542;SDS011;38449;52.696;6.186;2024-01-30T12:35:12;12.50;;;5.25;;
52542;SDS011;38449;52.696;6.186;2024-01-30T12:37:40;15.73;;;6.45;;
52542;SDS011;38449;52.696;6.186;2024-01-30T12:40:08;12.10;;;6.28;;
52542;SDS011;38449;52.696;6.186;2024-01-30T12:42:37;20.70;;;7.05;;
52542;SDS011;38449;52.696;6.186;2024-01-30T12:45:04;12.88;;;5.05;;
52542;SDS011;38449;52.696;6.186;2024-01-30T12:47:31;12.48;;;5.20;;
52542;SDS011;38449;52.696;6.186;2024-01-30T12:49:59;8.50;;;3.80;;
52542;SDS011;38449;52.696;6.186;2024-01-30T12:52:28;10.98;;;3.75;;
52542;SDS011;38449;52.696;6.186;2024-01-30T12:54:56;15.02;;;3.60;;
52542;SDS011;38449;52.696;6.186;2024-01-30T12:57:22;9.43;;;3.28;;
52542;SDS011;38449;52.696;6.186;2024-01-30T12:59:49;7.50;;;2.85;;
52542;SDS011;38449;52.696;6.186;2024-01-30T13:02:15;7.93;;;3.50;;
52542;SDS011;38449;52.696;6.186;2024-01-30T13:04:42;6.95;;;3.92;;
52542;SDS011;38449;52.696;6.186;2024-01-30T13:07:09;6.78;;;3.38;;
52542;SDS011;38449;52.696;6.186;2024-01-30T13:09:35;6.93;;;3.40;;
52542;SDS011;38449;52.696;6.186;2024-01-30T13:12:02;5.25;;;3.25;;
52542;SDS011;38449;52.696;6.186;2024-01-30T13:14:28;13.23;;;3.40;;
52542;SDS011;38449;52.696;6.186;2024-01-30T13:16:55;5.97;;;3.25;;
52542;SDS011;38449;52.696;6.186;2024-01-30T13:19:21;5.93;;;2.80;;
52542;SDS011;38449;52.696;6.186;2024-01-30T13:21:47;4.32;;;2.60;;
52542;SDS011;38449;52.696;6.186;2024-01-30T13:24:14;5.47;;;2.60;;
52542;SDS011;38449;52.696;6.186;2024-01-30T13:26:41;7.43;;;3.22;;
52542;SDS011;38449;52.696;6.186;2024-01-30T13:29:08;8.43;;;3.67;;
52542;SDS011;38449;52.696;6.186;2024-01-30T13:31:37;4.38;;;2.70;;
52542;SDS011;38449;52.696;6.186;2024-01-30T13:34:05;5.45;;;3.00;;
52542;SDS011;38449;52.696;6.186;2024-01-30T13:36:32;6.28;;;2.60;;
52542;SDS011;38449;52.696;6.186;2024-01-30T13:38:58;6.50;;;2.63;;
52542;SDS011;38449;52.696;6.186;2024-01-30T13:41:25;4.65;;;2.72;;
52542;SDS011;38449;52.696;6.186;2024-01-30T13:43:51;5.82;;;2.85;;
52542;SDS011;38449;52.696;6.186;2024-01-30T13:46:24;5.53;;;2.90;;
52542;SDS011;38449;52.696;6.186;2024-01-30T13:48:51;4.90;;;2.67;;
52542;SDS011;38449;52.696;6.186;2024-01-30T13:51:17;5.03;;;2.40;;
52542;SDS011;38449;52.696;6.186;2024-01-30T13:53:44;5.38;;;2.10;;
52542;SDS011;38449;52.696;6.186;2024-01-30T13:56:10;4.47;;;2.22;;
52542;SDS011;38449;52.696;6.186;2024-01-30T13:58:36;5.50;;;2.10;;
52542;SDS011;38449;52.696;6.186;2024-01-30T14:01:03;4.43;;;2.00;;
52542;SDS011;38449;52.696;6.186;2024-01-30T14:03:30;5.28;;;2.22;;
52542;SDS011;38449;52.696;6.186;2024-01-30T14:05:57;4.80;;;2.05;;
52542;SDS011;38449;52.696;6.186;2024-01-30T14:08:27;3.70;;;2.00;;
52542;SDS011;38449;52.696;6.186;2024-01-30T14:10:54;3.63;;;1.90;;
52542;SDS011;38449;52.696;6.186;2024-01-30T14:13:23;4.32;;;2.03;;
52542;SDS011;38449;52.696;6.186;2024-01-30T14:15:51;5.20;;;2.08;;
52542;SDS011;38449;52.696;6.186;2024-01-30T14:18:22;4.88;;;2.17;;
52542;SDS011;38449;52.696;6.186;2024-01-30T14:20:48;2.17;;;1.80;;
52542;SDS011;38449;52.696;6.186;2024-01-30T14:23:16;4.30;;;2.20;;
52542;SDS011;38449;52.696;6.186;2024-01-30T14:25:43;5.03;;;2.20;;
52542;SDS011;38449;52.696;6.186;2024-01-30T14:28:10;5.45;;;2.67;;
52542;SDS011;38449;52.696;6.186;2024-01-30T14:30:37;5.50;;;2.65;;
52542;SDS011;38449;52.696;6.186;2024-01-30T14:33:03;5.45;;;2.50;;
52542;SDS011;38449;52.696;6.186;2024-01-30T14:35:29;4.28;;;2.72;;
52542;SDS011;38449;52.696;6.186;2024-01-30T14:37:56;3.72;;;2.40;;